createdAt,value
2018-08-31T00:05:58.419Z,45.6
2018-08-31T00:15:57.662Z,45.7
2018-08-31T00:25:56.907Z,45.7
2018-08-31T00:35:56.148Z,45.8
2018-08-31T00:45:55.387Z,45.8
2018-08-31T00:55:54.627Z,45.9
2018-08-31T01:05:53.871Z,45.7
2018-08-31T01:15:53.112Z,45.3
2018-08-31T01:25:52.354Z,45.4
2018-08-31T01:35:51.598Z,45.4
2018-08-31T01:45:50.841Z,45.4
2018-08-31T01:55:50.083Z,45.6
2018-08-31T02:05:49.327Z,45.6
2018-08-31T02:15:48.566Z,45.6
2018-08-31T02:25:47.808Z,45.7
2018-08-31T02:35:47.053Z,45.7
2018-08-31T02:45:46.291Z,45.8
2018-08-31T02:55:45.535Z,45.8
2018-08-31T03:05:44.772Z,45.8
2018-08-31T03:15:44.013Z,45.8
2018-08-31T03:25:43.252Z,45.9
2018-08-31T03:35:42.492Z,45.8
2018-08-31T03:45:41.731Z,40.8
2018-08-31T03:55:40.973Z,40.3
2018-08-31T04:05:40.213Z,39.9
2018-08-31T04:15:39.452Z,39.6
2018-08-31T04:25:38.693Z,39.8
2018-08-31T04:35:37.937Z,39.6
2018-08-31T04:45:37.182Z,39.1
2018-08-31T04:55:36.420Z,39.3
2018-08-31T05:05:35.661Z,39.4
2018-08-31T05:15:34.905Z,38.9
2018-08-31T05:25:34.146Z,38.4
2018-08-31T05:35:33.389Z,38.6
2018-08-31T05:45:32.629Z,38.9
2018-08-31T05:55:31.873Z,39.1
2018-08-31T06:05:31.112Z,39.5
2018-08-31T06:15:30.353Z,39.9
2018-08-31T06:25:29.600Z,40.5
2018-08-31T06:35:28.836Z,41.3
2018-08-31T06:45:28.076Z,41.9
2018-08-31T06:55:27.368Z,42.9
2018-08-31T07:05:26.567Z,43.9
2018-08-31T07:15:25.808Z,45
2018-08-31T07:25:25.042Z,46.1
2018-08-31T07:35:24.283Z,47.1
2018-08-31T07:45:23.530Z,48.3
2018-08-31T07:55:22.772Z,49.4
2018-08-31T08:05:22.015Z,50.4
2018-08-31T08:15:21.256Z,51.4
2018-08-31T08:25:20.503Z,52.3
2018-08-31T08:35:19.740Z,53.2
2018-08-31T08:45:18.984Z,53.9
2018-08-31T08:55:18.226Z,54.8
2018-08-31T09:05:17.470Z,55.6
2018-08-31T09:15:16.706Z,56.2
2018-08-31T09:25:15.954Z,56.9
2018-08-31T09:35:15.193Z,57.6
2018-08-31T09:45:14.431Z,58.3
2018-08-31T09:55:13.672Z,58.9
2018-08-31T10:05:12.924Z,59.4
2018-08-31T10:15:12.169Z,60
2018-08-31T10:25:11.412Z,60.6
2018-08-31T10:35:10.650Z,61
2018-08-31T10:45:09.899Z,61.7
2018-08-31T10:55:09.139Z,62.3
2018-08-31T11:05:08.383Z,63
2018-08-31T11:15:07.681Z,63.7
2018-08-31T11:25:06.870Z,64.4
2018-08-31T11:35:06.109Z,65.1
2018-08-31T11:45:05.353Z,65.7
2018-08-31T11:55:04.610Z,66.4
2018-08-31T12:05:03.837Z,67
2018-08-31T12:15:03.081Z,67.7
2018-08-31T12:25:02.322Z,68.3
2018-08-31T12:35:01.563Z,68.9
2018-08-31T12:45:00.806Z,69.6
2018-08-31T12:55:00.049Z,70.1
2018-08-31T13:04:59.291Z,70.7
2018-08-31T13:14:58.532Z,71.3
2018-08-31T13:24:57.778Z,71.9
2018-08-31T13:34:57.022Z,72.4
2018-08-31T13:44:56.261Z,72.9
2018-08-31T13:54:55.505Z,73.4
2018-08-31T14:04:54.752Z,73.9
2018-08-31T14:14:54.006Z,74.4
2018-08-31T14:24:53.249Z,74.8
2018-08-31T14:34:52.497Z,75.1
2018-08-31T14:44:51.736Z,75.3
2018-08-31T14:54:50.984Z,75.4
2018-08-31T15:04:50.229Z,75.5
2018-08-31T15:14:49.479Z,75.3
2018-08-31T15:24:48.765Z,72.9
2018-08-31T15:34:47.953Z,71.5
2018-08-31T15:44:47.198Z,70.6
2018-08-31T15:54:46.445Z,68.3
2018-08-31T16:04:45.686Z,67.4
2018-08-31T16:14:44.930Z,66.8
2018-08-31T16:24:44.172Z,66.3
2018-08-31T16:34:43.423Z,65.8
2018-08-31T16:44:42.658Z,64.8
2018-08-31T16:54:41.903Z,63.1
2018-08-31T17:04:41.143Z,63.1
2018-08-31T17:14:40.387Z,62.8
2018-08-31T17:24:39.631Z,61.5
2018-08-31T17:34:38.881Z,59.9
2018-08-31T17:44:38.124Z,59.9
2018-08-31T17:54:37.368Z,59.8
2018-08-31T18:04:36.611Z,58.5
2018-08-31T18:14:35.856Z,56.4
2018-08-31T18:24:35.096Z,56.1
2018-08-31T18:34:34.342Z,55.9
2018-08-31T18:44:33.582Z,55.8
2018-08-31T18:54:32.823Z,55.8
2018-08-31T19:04:32.069Z,55.6
2018-08-31T19:14:31.312Z,55.5
2018-08-31T19:24:30.551Z,55.4
2018-08-31T19:34:29.795Z,55.4
2018-08-31T19:44:29.038Z,55.3
2018-08-31T19:54:28.278Z,55.2
2018-08-31T20:04:27.572Z,55.1
2018-08-31T20:14:26.757Z,55.1
2018-08-31T20:24:25.999Z,55.1
2018-08-31T20:34:25.295Z,54.9
2018-08-31T20:44:24.485Z,54.9
2018-08-31T20:54:23.723Z,54.9
2018-08-31T21:04:22.965Z,54.8
2018-08-31T21:14:22.206Z,54.8
2018-08-31T21:24:21.448Z,54.8
2018-08-31T21:34:20.689Z,54.8
2018-08-31T21:44:20.027Z,54.7
2018-08-31T21:54:19.171Z,54.7
2018-08-31T22:04:18.418Z,54.6
2018-08-31T22:14:17.653Z,54.6
2018-08-31T22:24:16.897Z,54.4
2018-08-31T22:34:16.164Z,54.5
2018-08-31T22:44:15.375Z,54.5
2018-08-31T22:54:14.620Z,54.4
2018-08-31T23:04:13.858Z,54.4
2018-08-31T23:14:13.105Z,54.4
2018-08-31T23:24:12.340Z,54.4
2018-08-31T23:34:11.581Z,54.4
2018-08-31T23:44:10.825Z,54.4
2018-08-31T23:54:10.062Z,54.4
